sensor_id;sensor_type;location;lat;lon;timestamp;P1;durP1;ratioP1;P2;durP2;ratioP2
48534;SDS011;34323;52.022;5.686;2023-04-16T00:01:19;8.52;;;4.07;;
48534;SDS011;34323;52.022;5.686;2023-04-16T00:03:44;7.40;;;2.90;;
48534;SDS011;34323;52.022;5.686;2023-04-16T00:06:10;12.18;;;3.25;;
48534;SDS011;34323;52.022;5.686;2023-04-16T00:08:36;8.43;;;3.75;;
48534;SDS011;34323;52.022;5.686;2023-04-16T00:11:02;11.75;;;3.65;;
48534;SDS011;34323;52.022;5.686;2023-04-16T00:13:27;8.10;;;3.35;;
48534;SDS011;34323;52.022;5.686;2023-04-16T00:15:53;12.73;;;3.70;;
48534;SDS011;34323;52.022;5.686;2023-04-16T00:18:19;17.08;;;4.78;;
48534;SDS011;34323;52.022;5.686;2023-04-16T00:20:45;14.35;;;5.15;;
48534;SDS011;34323;52.022;5.686;2023-04-16T00:23:11;14.75;;;5.32;;
48534;SDS011;34323;52.022;5.686;2023-04-16T00:25:37;16.25;;;5.63;;
48534;SDS011;34323;52.022;5.686;2023-04-16T00:28:03;12.23;;;6.20;;
48534;SDS011;34323;52.022;5.686;2023-04-16T00:30:29;16.17;;;6.65;;
48534;SDS011;34323;52.022;5.686;2023-04-16T00:32:54;18.40;;;7.05;;
48534;SDS011;34323;52.022;5.686;2023-04-16T00:35:20;22.08;;;7.25;;
48534;SDS011;34323;52.022;5.686;2023-04-16T00:37:46;21.02;;;6.80;;
48534;SDS011;34323;52.022;5.686;2023-04-16T00:40:11;20.70;;;7.57;;
48534;SDS011;34323;52.022;5.686;2023-04-16T00:42:37;21.05;;;7.82;;
48534;SDS011;34323;52.022;5.686;2023-04-16T00:45:03;27.38;;;9.25;;
48534;SDS011;34323;52.022;5.686;2023-04-16T00:47:29;30.95;;;8.90;;
48534;SDS011;34323;52.022;5.686;2023-04-16T00:49:55;25.92;;;9.02;;
48534;SDS011;34323;52.022;5.686;2023-04-16T00:52:21;24.83;;;7.18;;
48534;SDS011;34323;52.022;5.686;2023-04-16T00:54:47;26.95;;;9.75;;
48534;SDS011;34323;52.022;5.686;2023-04-16T00:57:13;36.88;;;8.93;;
48534;SDS011;34323;52.022;5.686;2023-04-16T00:59:39;27.25;;;10.07;;
48534;SDS011;34323;52.022;5.686;2023-04-16T01:02:06;37.15;;;10.48;;
48534;SDS011;34323;52.022;5.686;2023-04-16T01:04:31;23.80;;;9.65;;
48534;SDS011;34323;52.022;5.686;2023-04-16T01:06:58;26.67;;;9.38;;
48534;SDS011;34323;52.022;5.686;2023-04-16T01:09:23;32.63;;;10.15;;
48534;SDS011;34323;52.022;5.686;2023-04-16T01:11:49;25.30;;;10.18;;
48534;SDS011;34323;52.022;5.686;2023-04-16T01:14:15;28.05;;;9.93;;
48534;SDS011;34323;52.022;5.686;2023-04-16T01:16:40;34.63;;;10.18;;
48534;SDS011;34323;52.022;5.686;2023-04-16T01:19:06;37.65;;;10.98;;
48534;SDS011;34323;52.022;5.686;2023-04-16T01:21:31;34.65;;;10.40;;
48534;SDS011;34323;52.022;5.686;2023-04-16T01:24:00;26.48;;;9.35;;
48534;SDS011;34323;52.022;5.686;2023-04-16T01:26:27;41.72;;;10.82;;
48534;SDS011;34323;52.022;5.686;2023-04-16T01:28:52;28.30;;;10.93;;
48534;SDS011;34323;52.022;5.686;2023-04-16T01:31:18;34.15;;;11.48;;
48534;SDS011;34323;52.022;5.686;2023-04-16T01:33:43;32.88;;;11.25;;
48534;SDS011;34323;52.022;5.686;2023-04-16T01:36:09;35.22;;;11.70;;
48534;SDS011;34323;52.022;5.686;2023-04-16T01:38:35;33.92;;;10.93;;
48534;SDS011;34323;52.022;5.686;2023-04-16T01:41:00;31.42;;;10.93;;
48534;SDS011;34323;52.022;5.686;2023-04-16T01:43:26;35.30;;;12.07;;
48534;SDS011;34323;52.022;5.686;2023-04-16T01:46:09;33.90;;;11.05;;
48534;SDS011;34323;52.022;5.686;2023-04-16T01:48:40;37.63;;;10.65;;
48534;SDS011;34323;52.022;5.686;2023-04-16T01:51:05;36.90;;;11.02;;
48534;SDS011;34323;52.022;5.686;2023-04-16T01:53:31;33.97;;;11.43;;
48534;SDS011;34323;52.022;5.686;2023-04-16T01:55:56;39.22;;;11.63;;
48534;SDS011;34323;52.022;5.686;2023-04-16T01:58:22;31.88;;;11.98;;
48534;SDS011;34323;52.022;5.686;2023-04-16T02:00:48;35.70;;;10.70;;
48534;SDS011;34323;52.022;5.686;2023-04-16T02:03:14;30.20;;;10.88;;
48534;SDS011;34323;52.022;5.686;2023-04-16T02:05:41;33.53;;;10.35;;
48534;SDS011;34323;52.022;5.686;2023-04-16T02:08:07;26.10;;;10.50;;
48534;SDS011;34323;52.022;5.686;2023-04-16T02:10:32;34.97;;;11.30;;
48534;SDS011;34323;52.022;5.686;2023-04-16T02:12:58;30.45;;;10.45;;
48534;SDS011;34323;52.022;5.686;2023-04-16T02:15:23;33.70;;;10.95;;
48534;SDS011;34323;52.022;5.686;2023-04-16T02:17:49;33.50;;;11.18;;
48534;SDS011;34323;52.022;5.686;2023-04-16T02:20:18;34.83;;;11.32;;
48534;SDS011;34323;52.022;5.686;2023-04-16T02:22:44;29.17;;;10.98;;
48534;SDS011;34323;52.022;5.686;2023-04-16T02:25:10;31.75;;;11.27;;
48534;SDS011;34323;52.022;5.686;2023-04-16T02:27:35;26.50;;;10.75;;
48534;SDS011;34323;52.022;5.686;2023-04-16T02:30:01;27.52;;;10.63;;
48534;SDS011;34323;52.022;5.686;2023-04-16T02:32:28;39.83;;;12.23;;
48534;SDS011;34323;52.022;5.686;2023-04-16T02:34:54;29.98;;;10.25;;
48534;SDS011;34323;52.022;5.686;2023-04-16T02:37:20;35.17;;;11.70;;
48534;SDS011;34323;52.022;5.686;2023-04-16T02:39:46;34.20;;;11.48;;
48534;SDS011;34323;52.022;5.686;2023-04-16T02:42:13;39.03;;;10.98;;
48534;SDS011;34323;52.022;5.686;2023-04-16T02:44:40;20.20;;;9.25;;
48534;SDS011;34323;52.022;5.686;2023-04-16T02:47:06;38.25;;;10.73;;
48534;SDS011;34323;52.022;5.686;2023-04-16T02:49:31;31.83;;;10.75;;
48534;SDS011;34323;52.022;5.686;2023-04-16T02:51:57;33.58;;;11.65;;
48534;SDS011;34323;52.022;5.686;2023-04-16T02:54:22;30.30;;;11.48;;
48534;SDS011;34323;52.022;5.686;2023-04-16T02:56:48;32.33;;;11.68;;
48534;SDS011;34323;52.022;5.686;2023-04-16T02:59:14;28.60;;;11.02;;
48534;SDS011;34323;52.022;5.686;2023-04-16T03:01:39;20.52;;;10.10;;
48534;SDS011;34323;52.022;5.686;2023-04-16T03:04:05;30.58;;;11.30;;
48534;SDS011;34323;52.022;5.686;2023-04-16T03:06:30;32.45;;;11.70;;
48534;SDS011;34323;52.022;5.686;2023-04-16T03:08:56;32.72;;;11.38;;
48534;SDS011;34323;52.022;5.686;2023-04-16T03:11:22;30.23;;;12.07;;
48534;SDS011;34323;52.022;5.686;2023-04-16T03:13:47;36.55;;;12.50;;
48534;SDS011;34323;52.022;5.686;2023-04-16T03:16:13;36.30;;;11.70;;
48534;SDS011;34323;52.022;5.686;2023-04-16T03:18:39;37.50;;;13.20;;
48534;SDS011;34323;52.022;5.686;2023-04-16T03:21:04;33.72;;;12.70;;
48534;SDS011;34323;52.022;5.686;2023-04-16T03:23:30;31.25;;;12.73;;
48534;SDS011;34323;52.022;5.686;2023-04-16T03:25:56;40.00;;;13.50;;
48534;SDS011;34323;52.022;5.686;2023-04-16T03:28:21;32.55;;;14.15;;
48534;SDS011;34323;52.022;5.686;2023-04-16T03:30:50;37.90;;;13.55;;
48534;SDS011;34323;52.022;5.686;2023-04-16T03:33:17;31.30;;;14.07;;
48534;SDS011;34323;52.022;5.686;2023-04-16T03:35:43;33.28;;;12.18;;
48534;SDS011;34323;52.022;5.686;2023-04-16T03:38:08;39.25;;;13.35;;
48534;SDS011;34323;52.022;5.686;2023-04-16T03:40:34;35.58;;;13.35;;
48534;SDS011;34323;52.022;5.686;2023-04-16T03:42:59;35.72;;;13.43;;
48534;SDS011;34323;52.022;5.686;2023-04-16T03:45:25;42.60;;;14.02;;
48534;SDS011;34323;52.022;5.686;2023-04-16T03:47:51;39.55;;;13.70;;
48534;SDS011;34323;52.022;5.686;2023-04-16T03:50:19;44.42;;;14.35;;
48534;SDS011;34323;52.022;5.686;2023-04-16T03:52:45;34.53;;;14.75;;
48534;SDS011;34323;52.022;5.686;2023-04-16T03:55:13;39.03;;;15.27;;
48534;SDS011;34323;52.022;5.686;2023-04-16T03:57:38;37.45;;;16.27;;
48534;SDS011;34323;52.022;5.686;2023-04-16T04:00:05;44.40;;;15.02;;
48534;SDS011;34323;52.022;5.686;2023-04-16T04:02:31;43.55;;;15.45;;
48534;SDS011;34323;52.022;5.686;2023-04-16T04:04:56;39.70;;;15.27;;
48534;SDS011;34323;52.022;5.686;2023-04-16T04:07:22;41.42;;;15.23;;
48534;SDS011;34323;52.022;5.686;2023-04-16T04:09:48;41.90;;;15.82;;
48534;SDS011;34323;52.022;5.686;2023-04-16T04:12:13;42.45;;;16.77;;
48534;SDS011;34323;52.022;5.686;2023-04-16T04:14:39;41.03;;;17.35;;
48534;SDS011;34323;52.022;5.686;2023-04-16T04:17:05;45.38;;;16.90;;
48534;SDS011;34323;52.022;5.686;2023-04-16T04:19:31;46.00;;;17.50;;
48534;SDS011;34323;52.022;5.686;2023-04-16T04:21:57;51.10;;;19.48;;
48534;SDS011;34323;52.022;5.686;2023-04-16T04:24:22;40.78;;;16.75;;
48534;SDS011;34323;52.022;5.686;2023-04-16T04:26:48;44.78;;;18.38;;
48534;SDS011;34323;52.022;5.686;2023-04-16T04:29:13;44.05;;;17.92;;
48534;SDS011;34323;52.022;5.686;2023-04-16T04:31:39;49.28;;;17.90;;
48534;SDS011;34323;52.022;5.686;2023-04-16T04:34:04;38.63;;;15.60;;
48534;SDS011;34323;52.022;5.686;2023-04-16T04:36:30;49.55;;;18.00;;
48534;SDS011;34323;52.022;5.686;2023-04-16T04:38:56;38.55;;;17.15;;
48534;SDS011;34323;52.022;5.686;2023-04-16T04:41:21;45.53;;;17.48;;
48534;SDS011;34323;52.022;5.686;2023-04-16T04:43:47;47.17;;;18.55;;
48534;SDS011;34323;52.022;5.686;2023-04-16T04:46:13;40.92;;;16.15;;
48534;SDS011;34323;52.022;5.686;2023-04-16T04:48:39;45.42;;;17.77;;
48534;SDS011;34323;52.022;5.686;2023-04-16T04:51:04;43.33;;;16.52;;
48534;SDS011;34323;52.022;5.686;2023-04-16T04:53:30;41.83;;;15.95;;
48534;SDS011;34323;52.022;5.686;2023-04-16T04:55:56;44.10;;;15.77;;
48534;SDS011;34323;52.022;5.686;2023-04-16T04:58:21;36.60;;;14.00;;
48534;SDS011;34323;52.022;5.686;2023-04-16T05:00:47;36.20;;;15.82;;
48534;SDS011;34323;52.022;5.686;2023-04-16T05:03:17;29.15;;;13.85;;
48534;SDS011;34323;52.022;5.686;2023-04-16T05:05:44;37.25;;;15.68;;
48534;SDS011;34323;52.022;5.686;2023-04-16T05:08:09;36.47;;;14.65;;
48534;SDS011;34323;52.022;5.686;2023-04-16T05:10:35;41.03;;;13.82;;
48534;SDS011;34323;52.022;5.686;2023-04-16T05:13:00;35.63;;;13.68;;
48534;SDS011;34323;52.022;5.686;2023-04-16T05:15:26;31.70;;;14.98;;
48534;SDS011;34323;52.022;5.686;2023-04-16T05:17:52;31.83;;;13.80;;
48534;SDS011;34323;52.022;5.686;2023-04-16T05:20:17;34.33;;;14.27;;
48534;SDS011;34323;52.022;5.686;2023-04-16T05:22:43;33.30;;;13.63;;
48534;SDS011;34323;52.022;5.686;2023-04-16T05:25:08;36.03;;;14.05;;
48534;SDS011;34323;52.022;5.686;2023-04-16T05:27:34;28.73;;;13.20;;
48534;SDS011;34323;52.022;5.686;2023-04-16T05:30:01;33.30;;;13.82;;
48534;SDS011;34323;52.022;5.686;2023-04-16T05:32:26;31.10;;;13.68;;
48534;SDS011;34323;52.022;5.686;2023-04-16T05:34:52;40.33;;;14.95;;
48534;SDS011;34323;52.022;5.686;2023-04-16T05:37:18;35.35;;;13.75;;
48534;SDS011;34323;52.022;5.686;2023-04-16T05:39:43;38.40;;;13.93;;
48534;SDS011;34323;52.022;5.686;2023-04-16T05:42:09;37.47;;;14.32;;
48534;SDS011;34323;52.022;5.686;2023-04-16T05:44:34;33.35;;;13.82;;
48534;SDS011;34323;52.022;5.686;2023-04-16T05:47:00;29.05;;;13.98;;
48534;SDS011;34323;52.022;5.686;2023-04-16T05:49:25;32.97;;;14.02;;
48534;SDS011;34323;52.022;5.686;2023-04-16T05:51:51;32.65;;;16.08;;
48534;SDS011;34323;52.022;5.686;2023-04-16T05:54:17;38.38;;;14.93;;
48534;SDS011;34323;52.022;5.686;2023-04-16T05:56:42;32.42;;;15.20;;
48534;SDS011;34323;52.022;5.686;2023-04-16T05:59:08;34.25;;;13.45;;
48534;SDS011;34323;52.022;5.686;2023-04-16T06:01:33;39.28;;;15.15;;
48534;SDS011;34323;52.022;5.686;2023-04-16T06:03:59;35.58;;;14.80;;
48534;SDS011;34323;52.022;5.686;2023-04-16T06:06:25;36.95;;;16.00;;
48534;SDS011;34323;52.022;5.686;2023-04-16T06:08:51;34.17;;;15.30;;
48534;SDS011;34323;52.022;5.686;2023-04-16T06:11:17;37.85;;;15.18;;
48534;SDS011;34323;52.022;5.686;2023-04-16T06:13:43;32.05;;;15.10;;
48534;SDS011;34323;52.022;5.686;2023-04-16T06:16:08;37.22;;;14.75;;
48534;SDS011;34323;52.022;5.686;2023-04-16T06:18:34;36.08;;;14.85;;
48534;SDS011;34323;52.022;5.686;2023-04-16T06:21:00;35.55;;;15.32;;
48534;SDS011;34323;52.022;5.686;2023-04-16T06:23:25;36.58;;;15.45;;
48534;SDS011;34323;52.022;5.686;2023-04-16T06:25:51;35.67;;;15.65;;
48534;SDS011;34323;52.022;5.686;2023-04-16T06:28:16;34.78;;;13.95;;
48534;SDS011;34323;52.022;5.686;2023-04-16T06:30:42;34.88;;;14.60;;
48534;SDS011;34323;52.022;5.686;2023-04-16T06:33:08;43.40;;;15.10;;
48534;SDS011;34323;52.022;5.686;2023-04-16T06:35:33;34.72;;;14.55;;
48534;SDS011;34323;52.022;5.686;2023-04-16T06:37:59;35.50;;;14.80;;
48534;SDS011;34323;52.022;5.686;2023-04-16T06:40:25;31.77;;;13.63;;
48534;SDS011;34323;52.022;5.686;2023-04-16T06:42:51;41.20;;;14.60;;
48534;SDS011;34323;52.022;5.686;2023-04-16T06:45:16;30.08;;;14.25;;
48534;SDS011;34323;52.022;5.686;2023-04-16T06:47:42;32.35;;;13.40;;
48534;SDS011;34323;52.022;5.686;2023-04-16T06:50:07;31.27;;;14.10;;
48534;SDS011;34323;52.022;5.686;2023-04-16T06:52:33;31.98;;;13.82;;
48534;SDS011;34323;52.022;5.686;2023-04-16T06:54:59;30.52;;;13.68;;
48534;SDS011;34323;52.022;5.686;2023-04-16T06:57:25;36.38;;;14.43;;
48534;SDS011;34323;52.022;5.686;2023-04-16T06:59:51;40.33;;;14.18;;
48534;SDS011;34323;52.022;5.686;2023-04-16T07:02:16;43.60;;;14.52;;
48534;SDS011;34323;52.022;5.686;2023-04-16T07:04:42;32.15;;;13.68;;
48534;SDS011;34323;52.022;5.686;2023-04-16T07:07:08;32.47;;;14.60;;
48534;SDS011;34323;52.022;5.686;2023-04-16T07:09:34;35.42;;;14.88;;
48534;SDS011;34323;52.022;5.686;2023-04-16T07:11:59;36.67;;;14.30;;
48534;SDS011;34323;52.022;5.686;2023-04-16T07:14:25;38.47;;;14.90;;
48534;SDS011;34323;52.022;5.686;2023-04-16T07:16:50;31.58;;;14.02;;
48534;SDS011;34323;52.022;5.686;2023-04-16T07:19:16;41.08;;;15.68;;
48534;SDS011;34323;52.022;5.686;2023-04-16T07:21:41;39.28;;;17.23;;
48534;SDS011;34323;52.022;5.686;2023-04-16T07:24:08;43.67;;;16.02;;
48534;SDS011;34323;52.022;5.686;2023-04-16T07:26:34;39.38;;;17.10;;
48534;SDS011;34323;52.022;5.686;2023-04-16T07:29:00;39.22;;;17.58;;
48534;SDS011;34323;52.022;5.686;2023-04-16T07:31:25;45.28;;;18.33;;
48534;SDS011;34323;52.022;5.686;2023-04-16T07:33:51;51.53;;;18.23;;
48534;SDS011;34323;52.022;5.686;2023-04-16T07:36:17;46.55;;;17.38;;
48534;SDS011;34323;52.022;5.686;2023-04-16T07:38:42;39.28;;;18.38;;
48534;SDS011;34323;52.022;5.686;2023-04-16T07:41:08;36.42;;;17.05;;
48534;SDS011;34323;52.022;5.686;2023-04-16T07:43:33;47.55;;;19.10;;
48534;SDS011;34323;52.022;5.686;2023-04-16T07:45:59;41.78;;;18.80;;
48534;SDS011;34323;52.022;5.686;2023-04-16T07:48:25;42.85;;;17.92;;
48534;SDS011;34323;52.022;5.686;2023-04-16T07:50:51;54.17;;;18.73;;
48534;SDS011;34323;52.022;5.686;2023-04-16T07:53:17;38.75;;;18.40;;
48534;SDS011;34323;52.022;5.686;2023-04-16T07:55:42;39.30;;;19.10;;
48534;SDS011;34323;52.022;5.686;2023-04-16T07:58:08;43.15;;;18.85;;
48534;SDS011;34323;52.022;5.686;2023-04-16T08:00:33;45.40;;;18.40;;
48534;SDS011;34323;52.022;5.686;2023-04-16T08:02:59;42.97;;;19.05;;
48534;SDS011;34323;52.022;5.686;2023-04-16T08:05:25;41.85;;;19.33;;
48534;SDS011;34323;52.022;5.686;2023-04-16T08:07:50;48.97;;;19.17;;
48534;SDS011;34323;52.022;5.686;2023-04-16T08:10:16;47.53;;;19.15;;
48534;SDS011;34323;52.022;5.686;2023-04-16T08:12:41;40.97;;;18.05;;
48534;SDS011;34323;52.022;5.686;2023-04-16T08:15:07;42.95;;;17.35;;
48534;SDS011;34323;52.022;5.686;2023-04-16T08:17:33;37.72;;;17.10;;
48534;SDS011;34323;52.022;5.686;2023-04-16T08:19:59;39.90;;;18.23;;
48534;SDS011;34323;52.022;5.686;2023-04-16T08:22:24;34.13;;;18.75;;
48534;SDS011;34323;52.022;5.686;2023-04-16T08:24:50;45.35;;;17.98;;
48534;SDS011;34323;52.022;5.686;2023-04-16T08:27:16;38.45;;;16.98;;
48534;SDS011;34323;52.022;5.686;2023-04-16T08:29:41;37.90;;;17.25;;
48534;SDS011;34323;52.022;5.686;2023-04-16T08:32:07;41.78;;;19.10;;
48534;SDS011;34323;52.022;5.686;2023-04-16T08:34:34;41.10;;;17.60;;
48534;SDS011;34323;52.022;5.686;2023-04-16T08:37:01;39.05;;;18.65;;
48534;SDS011;34323;52.022;5.686;2023-04-16T08:39:26;42.20;;;18.00;;
48534;SDS011;34323;52.022;5.686;2023-04-16T08:41:52;36.63;;;18.10;;
48534;SDS011;34323;52.022;5.686;2023-04-16T08:44:20;34.80;;;18.17;;
48534;SDS011;34323;52.022;5.686;2023-04-16T08:46:52;36.05;;;17.10;;
48534;SDS011;34323;52.022;5.686;2023-04-16T08:49:22;36.45;;;17.45;;
48534;SDS011;34323;52.022;5.686;2023-04-16T08:51:50;40.17;;;18.67;;
48534;SDS011;34323;52.022;5.686;2023-04-16T08:54:23;35.35;;;16.60;;
48534;SDS011;34323;52.022;5.686;2023-04-16T08:56:52;38.67;;;17.73;;
48534;SDS011;34323;52.022;5.686;2023-04-16T08:59:19;33.05;;;15.77;;
48534;SDS011;34323;52.022;5.686;2023-04-16T09:01:46;38.00;;;18.17;;
48534;SDS011;34323;52.022;5.686;2023-04-16T09:04:12;33.40;;;16.67;;
48534;SDS011;34323;52.022;5.686;2023-04-16T09:06:40;32.28;;;16.10;;
48534;SDS011;34323;52.022;5.686;2023-04-16T09:09:07;40.08;;;19.08;;
48534;SDS011;34323;52.022;5.686;2023-04-16T09:11:35;40.75;;;17.33;;
48534;SDS011;34323;52.022;5.686;2023-04-16T09:14:02;40.17;;;19.42;;
48534;SDS011;34323;52.022;5.686;2023-04-16T09:16:33;40.03;;;16.73;;
48534;SDS011;34323;52.022;5.686;2023-04-16T09:18:59;37.58;;;17.77;;
48534;SDS011;34323;52.022;5.686;2023-04-16T09:21:24;39.92;;;18.15;;
48534;SDS011;34323;52.022;5.686;2023-04-16T09:23:51;41.40;;;17.52;;
48534;SDS011;34323;52.022;5.686;2023-04-16T09:26:17;38.42;;;18.73;;
48534;SDS011;34323;52.022;5.686;2023-04-16T09:28:45;37.65;;;17.23;;
48534;SDS011;34323;52.022;5.686;2023-04-16T09:31:12;35.85;;;18.02;;
48534;SDS011;34323;52.022;5.686;2023-04-16T09:33:39;36.45;;;18.02;;
48534;SDS011;34323;52.022;5.686;2023-04-16T09:36:05;41.40;;;18.20;;
48534;SDS011;34323;52.022;5.686;2023-04-16T09:38:51;37.90;;;17.70;;
48534;SDS011;34323;52.022;5.686;2023-04-16T09:41:17;37.67;;;18.20;;
48534;SDS011;34323;52.022;5.686;2023-04-16T09:43:56;44.42;;;18.05;;
48534;SDS011;34323;52.022;5.686;2023-04-16T09:46:37;41.53;;;17.58;;
48534;SDS011;34323;52.022;5.686;2023-04-16T09:49:15;47.85;;;19.50;;
48534;SDS011;34323;52.022;5.686;2023-04-16T09:51:43;38.00;;;16.83;;
48534;SDS011;34323;52.022;5.686;2023-04-16T09:54:10;41.40;;;17.58;;
48534;SDS011;34323;52.022;5.686;2023-04-16T09:56:41;42.00;;;16.35;;
48534;SDS011;34323;52.022;5.686;2023-04-16T09:59:08;39.47;;;17.50;;
48534;SDS011;34323;52.022;5.686;2023-04-16T10:01:47;40.08;;;17.75;;
48534;SDS011;34323;52.022;5.686;2023-04-16T10:04:17;39.60;;;18.17;;
48534;SDS011;34323;52.022;5.686;2023-04-16T10:06:43;39.72;;;17.58;;
48534;SDS011;34323;52.022;5.686;2023-04-16T10:09:12;37.70;;;17.20;;
48534;SDS011;34323;52.022;5.686;2023-04-16T10:11:37;32.90;;;15.85;;
48534;SDS011;34323;52.022;5.686;2023-04-16T10:14:03;35.75;;;15.90;;
48534;SDS011;34323;52.022;5.686;2023-04-16T10:16:29;38.60;;;17.63;;
48534;SDS011;34323;52.022;5.686;2023-04-16T10:18:55;42.28;;;16.25;;
48534;SDS011;34323;52.022;5.686;2023-04-16T10:21:21;36.42;;;16.05;;
48534;SDS011;34323;52.022;5.686;2023-04-16T10:23:46;42.38;;;17.02;;
48534;SDS011;34323;52.022;5.686;2023-04-16T10:26:13;37.67;;;15.90;;
48534;SDS011;34323;52.022;5.686;2023-04-16T10:28:41;33.17;;;15.88;;
48534;SDS011;34323;52.022;5.686;2023-04-16T10:31:09;37.25;;;16.33;;
48534;SDS011;34323;52.022;5.686;2023-04-16T10:33:38;38.65;;;16.75;;
48534;SDS011;34323;52.022;5.686;2023-04-16T10:36:15;30.13;;;15.20;;
48534;SDS011;34323;52.022;5.686;2023-04-16T10:38:47;38.88;;;17.73;;
48534;SDS011;34323;52.022;5.686;2023-04-16T10:41:14;36.22;;;16.30;;
48534;SDS011;34323;52.022;5.686;2023-04-16T10:43:41;37.92;;;16.15;;
48534;SDS011;34323;52.022;5.686;2023-04-16T10:46:16;41.40;;;17.73;;
48534;SDS011;34323;52.022;5.686;2023-04-16T10:48:45;37.10;;;15.32;;
48534;SDS011;34323;52.022;5.686;2023-04-16T10:51:32;33.10;;;15.88;;
48534;SDS011;34323;52.022;5.686;2023-04-16T10:54:02;40.75;;;15.48;;
48534;SDS011;34323;52.022;5.686;2023-04-16T10:56:43;43.28;;;16.17;;
48534;SDS011;34323;52.022;5.686;2023-04-16T10:59:10;30.27;;;15.65;;
48534;SDS011;34323;52.022;5.686;2023-04-16T11:01:37;37.60;;;16.67;;
48534;SDS011;34323;52.022;5.686;2023-04-16T11:07:03;39.60;;;15.65;;
48534;SDS011;34323;52.022;5.686;2023-04-16T11:12:45;37.75;;;15.70;;
48534;SDS011;34323;52.022;5.686;2023-04-16T11:15:13;36.08;;;15.65;;
48534;SDS011;34323;52.022;5.686;2023-04-16T11:17:46;32.13;;;16.17;;
48534;SDS011;34323;52.022;5.686;2023-04-16T11:22:41;33.13;;;15.80;;
48534;SDS011;34323;52.022;5.686;2023-04-16T11:25:07;34.92;;;15.60;;
48534;SDS011;34323;52.022;5.686;2023-04-16T11:27:33;30.42;;;14.00;;
48534;SDS011;34323;52.022;5.686;2023-04-16T11:29:59;28.15;;;13.48;;
48534;SDS011;34323;52.022;5.686;2023-04-16T11:32:29;35.15;;;15.38;;
48534;SDS011;34323;52.022;5.686;2023-04-16T11:34:59;33.47;;;14.35;;
48534;SDS011;34323;52.022;5.686;2023-04-16T11:37:35;33.83;;;13.32;;
48534;SDS011;34323;52.022;5.686;2023-04-16T11:40:02;30.08;;;13.85;;
48534;SDS011;34323;52.022;5.686;2023-04-16T11:42:31;36.95;;;14.68;;
48534;SDS011;34323;52.022;5.686;2023-04-16T11:44:58;33.25;;;14.75;;
48534;SDS011;34323;52.022;5.686;2023-04-16T11:47:28;34.58;;;15.52;;
48534;SDS011;34323;52.022;5.686;2023-04-16T11:49:54;34.15;;;16.48;;
48534;SDS011;34323;52.022;5.686;2023-04-16T11:52:24;35.13;;;15.27;;
48534;SDS011;34323;52.022;5.686;2023-04-16T11:54:54;34.85;;;14.27;;
48534;SDS011;34323;52.022;5.686;2023-04-16T11:57:23;35.25;;;15.10;;
48534;SDS011;34323;52.022;5.686;2023-04-16T11:59:49;33.63;;;15.50;;
48534;SDS011;34323;52.022;5.686;2023-04-16T12:02:15;30.67;;;13.88;;
48534;SDS011;34323;52.022;5.686;2023-04-16T12:04:41;22.45;;;13.00;;
48534;SDS011;34323;52.022;5.686;2023-04-16T12:07:10;33.58;;;13.40;;
48534;SDS011;34323;52.022;5.686;2023-04-16T12:09:38;24.05;;;12.88;;
48534;SDS011;34323;52.022;5.686;2023-04-16T12:12:05;22.95;;;12.85;;
48534;SDS011;34323;52.022;5.686;2023-04-16T12:14:49;30.38;;;13.27;;
48534;SDS011;34323;52.022;5.686;2023-04-16T12:17:16;26.20;;;12.40;;
48534;SDS011;34323;52.022;5.686;2023-04-16T12:20:03;19.45;;;11.80;;
48534;SDS011;34323;52.022;5.686;2023-04-16T12:22:42;24.27;;;11.75;;
48534;SDS011;34323;52.022;5.686;2023-04-16T12:25:10;30.92;;;13.73;;
48534;SDS011;34323;52.022;5.686;2023-04-16T12:32:36;27.05;;;12.38;;
48534;SDS011;34323;52.022;5.686;2023-04-16T12:35:02;24.63;;;12.50;;
48534;SDS011;34323;52.022;5.686;2023-04-16T12:37:29;27.08;;;12.90;;
48534;SDS011;34323;52.022;5.686;2023-04-16T12:39:54;28.67;;;12.65;;
48534;SDS011;34323;52.022;5.686;2023-04-16T12:42:20;18.80;;;11.13;;
48534;SDS011;34323;52.022;5.686;2023-04-16T12:44:46;31.77;;;13.38;;
48534;SDS011;34323;52.022;5.686;2023-04-16T12:47:11;23.92;;;12.02;;
48534;SDS011;34323;52.022;5.686;2023-04-16T12:49:37;21.77;;;11.77;;
48534;SDS011;34323;52.022;5.686;2023-04-16T12:52:03;23.15;;;11.32;;
48534;SDS011;34323;52.022;5.686;2023-04-16T12:54:28;20.95;;;11.82;;
48534;SDS011;34323;52.022;5.686;2023-04-16T12:56:55;22.27;;;11.93;;
48534;SDS011;34323;52.022;5.686;2023-04-16T12:59:21;27.73;;;12.45;;
48534;SDS011;34323;52.022;5.686;2023-04-16T13:01:47;19.48;;;12.00;;
48534;SDS011;34323;52.022;5.686;2023-04-16T13:04:13;25.30;;;12.13;;
48534;SDS011;34323;52.022;5.686;2023-04-16T13:06:39;26.20;;;12.20;;
48534;SDS011;34323;52.022;5.686;2023-04-16T13:09:04;24.98;;;12.20;;
48534;SDS011;34323;52.022;5.686;2023-04-16T13:11:30;26.95;;;12.32;;
48534;SDS011;34323;52.022;5.686;2023-04-16T13:13:56;26.33;;;11.98;;
48534;SDS011;34323;52.022;5.686;2023-04-16T13:16:22;23.35;;;12.02;;
48534;SDS011;34323;52.022;5.686;2023-04-16T13:18:48;25.98;;;11.63;;
48534;SDS011;34323;52.022;5.686;2023-04-16T13:21:13;23.55;;;11.98;;
48534;SDS011;34323;52.022;5.686;2023-04-16T13:23:39;32.38;;;11.38;;
48534;SDS011;34323;52.022;5.686;2023-04-16T13:26:05;22.88;;;11.85;;
48534;SDS011;34323;52.022;5.686;2023-04-16T13:28:30;25.88;;;12.95;;
48534;SDS011;34323;52.022;5.686;2023-04-16T13:30:56;24.08;;;12.98;;
48534;SDS011;34323;52.022;5.686;2023-04-16T13:33:21;26.00;;;12.68;;
48534;SDS011;34323;52.022;5.686;2023-04-16T13:35:48;22.92;;;13.45;;
48534;SDS011;34323;52.022;5.686;2023-04-16T13:38:14;23.05;;;12.73;;
48534;SDS011;34323;52.022;5.686;2023-04-16T13:40:40;24.63;;;14.02;;
48534;SDS011;34323;52.022;5.686;2023-04-16T13:43:05;28.58;;;13.80;;
48534;SDS011;34323;52.022;5.686;2023-04-16T13:45:31;23.10;;;12.90;;
48534;SDS011;34323;52.022;5.686;2023-04-16T13:47:57;25.70;;;12.35;;
48534;SDS011;34323;52.022;5.686;2023-04-16T13:50:23;33.85;;;13.80;;
48534;SDS011;34323;52.022;5.686;2023-04-16T13:52:49;22.45;;;13.35;;
48534;SDS011;34323;52.022;5.686;2023-04-16T13:55:15;28.67;;;13.48;;
48534;SDS011;34323;52.022;5.686;2023-04-16T13:57:43;31.08;;;13.50;;
48534;SDS011;34323;52.022;5.686;2023-04-16T14:00:10;33.75;;;13.98;;
48534;SDS011;34323;52.022;5.686;2023-04-16T14:02:36;27.88;;;13.90;;
48534;SDS011;34323;52.022;5.686;2023-04-16T14:05:01;27.92;;;13.35;;
48534;SDS011;34323;52.022;5.686;2023-04-16T14:07:27;31.00;;;14.25;;
48534;SDS011;34323;52.022;5.686;2023-04-16T14:09:53;26.65;;;13.90;;
48534;SDS011;34323;52.022;5.686;2023-04-16T14:12:18;28.50;;;13.73;;
48534;SDS011;34323;52.022;5.686;2023-04-16T14:14:44;32.25;;;14.05;;
48534;SDS011;34323;52.022;5.686;2023-04-16T14:17:10;24.23;;;12.93;;
48534;SDS011;34323;52.022;5.686;2023-04-16T14:19:36;28.33;;;13.43;;
48534;SDS011;34323;52.022;5.686;2023-04-16T14:22:01;20.67;;;13.27;;
48534;SDS011;34323;52.022;5.686;2023-04-16T14:24:27;23.52;;;13.63;;
48534;SDS011;34323;52.022;5.686;2023-04-16T14:26:52;23.10;;;12.55;;
48534;SDS011;34323;52.022;5.686;2023-04-16T14:29:18;22.15;;;12.60;;
48534;SDS011;34323;52.022;5.686;2023-04-16T14:31:43;22.55;;;12.73;;
48534;SDS011;34323;52.022;5.686;2023-04-16T14:34:09;26.60;;;12.65;;